createdAt,value
2023-11-13T00:02:11.548Z,4.32
2023-11-13T00:04:38.565Z,4.30
2023-11-13T00:07:05.616Z,4.20
2023-11-13T00:09:32.880Z,4.88
2023-11-13T00:11:59.863Z,5.93
2023-11-13T00:14:27.083Z,6.55
2023-11-13T00:16:54.064Z,6.68
2023-11-13T00:19:21.089Z,7.15
2023-11-13T00:21:48.086Z,7.47
2023-11-13T00:24:14.973Z,7.82
2023-11-13T00:26:41.935Z,7.72
2023-11-13T00:29:08.813Z,8.38
2023-11-13T00:31:36.006Z,7.88
2023-11-13T00:34:03.139Z,8.30
2023-11-13T00:36:30.009Z,8.30
2023-11-13T00:38:56.845Z,8.00
2023-11-13T00:41:23.784Z,7.15
2023-11-13T00:43:50.677Z,7.90
2023-11-13T00:46:17.645Z,6.97
2023-11-13T00:48:45.807Z,6.13
2023-11-13T00:51:15.136Z,5.07
2023-11-13T00:53:42.025Z,5.10
2023-11-13T00:56:09.262Z,5.35
2023-11-13T00:58:37.379Z,5.40
2023-11-13T01:01:08.105Z,4.88
2023-11-13T01:03:36.212Z,5.93
2023-11-13T01:06:04.111Z,5.75
2023-11-13T01:08:31.185Z,5.63
2023-11-13T01:10:58.395Z,5.95
2023-11-13T01:13:25.379Z,6.10
2023-11-13T01:15:55.149Z,6.60
2023-11-13T01:18:24.635Z,6.75
2023-11-13T01:20:51.607Z,7.03
2023-11-13T01:23:18.479Z,7.13
2023-11-13T01:25:48.818Z,7.72
2023-11-13T01:28:17.269Z,7.13
2023-11-13T01:30:44.114Z,6.20
2023-11-13T01:33:11.203Z,6.85
2023-11-13T01:35:38.125Z,6.32
2023-11-13T01:38:04.971Z,5.90
2023-11-13T01:40:32.959Z,5.78
2023-11-13T01:42:59.864Z,5.32
2023-11-13T01:45:26.806Z,5.75
2023-11-13T01:47:53.758Z,5.82
2023-11-13T01:50:20.655Z,6.00
2023-11-13T01:52:47.569Z,6.03
2023-11-13T01:55:14.848Z,5.07
2023-11-13T01:57:44.389Z,4.97
2023-11-13T02:00:12.003Z,5.63
2023-11-13T02:02:40.133Z,5.43
2023-11-13T02:05:07.384Z,5.28
2023-11-13T02:07:34.981Z,5.22
2023-11-13T02:10:02.406Z,5.97
2023-11-13T02:12:29.388Z,5.57
2023-11-13T02:14:56.338Z,5.35
2023-11-13T02:17:23.260Z,5.18
2023-11-13T02:19:50.150Z,5.60
2023-11-13T02:22:17.122Z,5.38
2023-11-13T02:24:43.986Z,5.43
2023-11-13T02:27:11.093Z,6.18
2023-11-13T02:29:38.289Z,5.35
2023-11-13T02:32:06.365Z,5.57
2023-11-13T02:34:33.376Z,5.55
2023-11-13T02:37:00.254Z,5.57
2023-11-13T02:39:27.153Z,6.05
2023-11-13T02:41:56.493Z,6.03
2023-11-13T02:44:23.452Z,6.30
2023-11-13T02:46:50.608Z,6.93
2023-11-13T02:49:17.927Z,6.20
2023-11-13T02:51:44.944Z,6.50
2023-11-13T02:54:11.827Z,6.15
2023-11-13T02:56:38.711Z,7.45
2023-11-13T02:59:05.597Z,7.22
2023-11-13T03:01:33.147Z,7.10
2023-11-13T03:04:00.177Z,7.53
2023-11-13T03:06:27.132Z,8.57
2023-11-13T03:08:54.087Z,8.52
2023-11-13T03:11:20.991Z,8.98
2023-11-13T03:13:47.956Z,9.35
2023-11-13T03:16:15.079Z,9.48
2023-11-13T03:18:41.955Z,9.30
2023-11-13T03:21:08.785Z,10.02
2023-11-13T03:23:35.699Z,10.07
2023-11-13T03:26:04.768Z,10.10
2023-11-13T03:28:32.277Z,10.07
2023-11-13T03:30:59.492Z,10.18
2023-11-13T03:33:26.617Z,9.27
2023-11-13T03:35:53.480Z,10.05
2023-11-13T03:38:20.362Z,9.80
2023-11-13T03:40:47.253Z,10.38
2023-11-13T03:43:14.217Z,9.93
2023-11-13T03:45:41.097Z,10.63
2023-11-13T03:48:08.268Z,10.60
2023-11-13T03:50:35.174Z,11.65
2023-11-13T03:53:02.033Z,10.85
2023-11-13T03:55:28.982Z,12.32
2023-11-13T03:57:55.917Z,11.90
2023-11-13T04:00:23.457Z,11.73
2023-11-13T04:02:50.564Z,11.70
2023-11-13T04:05:17.897Z,10.82
2023-11-13T04:07:45.258Z,12.27
2023-11-13T04:10:14.856Z,11.70
2023-11-13T04:12:44.727Z,12.15
2023-11-13T04:15:12.897Z,11.63
2023-11-13T04:17:40.274Z,11.10
2023-11-13T04:20:08.468Z,11.20
2023-11-13T04:22:35.718Z,11.43
2023-11-13T04:25:03.536Z,10.43
2023-11-13T04:27:30.711Z,10.43
2023-11-13T04:29:57.584Z,11.43
2023-11-13T04:32:25.398Z,11.25
2023-11-13T04:34:52.833Z,12.77
2023-11-13T04:37:22.918Z,11.50
2023-11-13T04:39:50.114Z,11.57
2023-11-13T04:42:17.018Z,12.60
2023-11-13T04:44:44.264Z,12.20
2023-11-13T04:47:11.191Z,12.38
2023-11-13T04:49:38.098Z,12.60
2023-11-13T04:52:07.509Z,12.25
2023-11-13T04:54:34.719Z,12.55
2023-11-13T04:57:02.024Z,13.43
2023-11-13T04:59:28.973Z,13.15
2023-11-13T05:01:56.078Z,13.25
2023-11-13T05:04:23.178Z,12.73
2023-11-13T05:06:50.278Z,13.88
2023-11-13T05:09:17.196Z,14.63
2023-11-13T05:11:44.146Z,14.25
2023-11-13T05:14:11.003Z,13.02
2023-11-13T05:16:39.045Z,13.43
2023-11-13T05:19:06.325Z,12.73
2023-11-13T05:21:33.495Z,12.98
2023-11-13T05:24:00.431Z,12.90
2023-11-13T05:26:27.430Z,13.40
2023-11-13T05:28:56.274Z,12.95
2023-11-13T05:31:23.282Z,12.15
2023-11-13T05:33:50.300Z,12.77
2023-11-13T05:36:17.138Z,12.77
2023-11-13T05:38:44.697Z,12.40
2023-11-13T05:41:11.999Z,12.95
2023-11-13T05:43:39.345Z,13.10
2023-11-13T05:46:06.984Z,12.50
2023-11-13T05:48:34.424Z,12.20
2023-11-13T05:51:01.693Z,12.45
2023-11-13T05:53:28.573Z,13.05
2023-11-13T05:55:57.870Z,13.63
2023-11-13T05:58:25.261Z,13.02
2023-11-13T06:00:52.548Z,13.63
2023-11-13T06:03:19.637Z,12.25
2023-11-13T06:05:46.789Z,13.48
2023-11-13T06:08:13.892Z,13.27
2023-11-13T06:10:40.941Z,12.23
2023-11-13T06:13:08.046Z,11.52
2023-11-13T06:15:37.786Z,9.60
2023-11-13T06:18:04.875Z,8.50
2023-11-13T06:20:31.743Z,8.10
2023-11-13T06:22:58.609Z,8.10
2023-11-13T06:25:25.699Z,7.10
2023-11-13T06:27:54.091Z,7.55
2023-11-13T06:30:23.716Z,7.25
2023-11-13T06:32:51.214Z,7.35
2023-11-13T06:35:18.349Z,7.25
2023-11-13T06:37:45.211Z,6.93
2023-11-13T06:40:12.712Z,7.25
2023-11-13T06:42:39.630Z,7.55
2023-11-13T06:45:06.924Z,7.80
2023-11-13T06:47:34.610Z,6.97
2023-11-13T06:50:01.878Z,8.32
2023-11-13T06:52:29.009Z,7.38
2023-11-13T06:54:59.461Z,6.68
2023-11-13T06:57:26.936Z,7.18
2023-11-13T06:59:56.501Z,6.88
2023-11-13T07:02:27.511Z,7.22
2023-11-13T07:04:55.192Z,7.15
2023-11-13T07:07:23.109Z,8.02
2023-11-13T07:09:50.081Z,8.05
2023-11-13T07:12:17.977Z,7.35
2023-11-13T07:14:44.933Z,7.10
2023-11-13T07:17:11.906Z,5.75
2023-11-13T07:19:39.753Z,5.50
2023-11-13T07:22:08.451Z,5.07
2023-11-13T07:24:37.928Z,5.60
2023-11-13T07:27:08.005Z,5.45
2023-11-13T07:29:36.460Z,6.20
2023-11-13T07:32:03.468Z,5.15
2023-11-13T07:34:30.481Z,5.60
2023-11-13T07:36:57.435Z,6.03
2023-11-13T07:39:28.941Z,6.43
2023-11-13T07:41:58.014Z,6.13
2023-11-13T07:44:25.054Z,6.18
2023-11-13T07:46:53.437Z,6.22
2023-11-13T07:49:20.513Z,6.28
2023-11-13T07:51:48.145Z,5.85
2023-11-13T07:54:15.080Z,6.40
2023-11-13T07:56:42.002Z,6.68
2023-11-13T07:59:12.805Z,7.75
2023-11-13T08:01:40.183Z,6.65
2023-11-13T08:04:09.839Z,7.57
2023-11-13T08:06:37.056Z,6.38
2023-11-13T08:09:10.146Z,6.20
2023-11-13T08:11:37.743Z,6.65
2023-11-13T08:14:04.720Z,6.40
2023-11-13T08:16:34.808Z,6.68
2023-11-13T08:19:01.798Z,6.95
2023-11-13T08:21:29.655Z,6.85
2023-11-13T08:23:56.558Z,6.82
2023-11-13T08:26:30.082Z,6.90
2023-11-13T08:28:58.849Z,6.85
2023-11-13T08:31:27.647Z,6.28
2023-11-13T08:33:56.286Z,6.75
2023-11-13T08:36:30.100Z,7.05
2023-11-13T08:38:57.093Z,6.68
2023-11-13T08:41:24.773Z,7.13
2023-11-13T08:43:51.705Z,6.72
2023-11-13T08:46:18.698Z,7.07
2023-11-13T08:48:45.750Z,6.78
2023-11-13T08:51:13.072Z,7.85
2023-11-13T08:53:40.457Z,7.60
2023-11-13T08:56:09.506Z,8.00
2023-11-13T08:58:39.627Z,7.18
2023-11-13T09:01:08.575Z,6.97
2023-11-13T09:03:36.184Z,7.72
2023-11-13T09:06:09.197Z,6.78
2023-11-13T09:08:37.915Z,6.30
2023-11-13T09:11:06.210Z,6.68
2023-11-13T09:13:33.207Z,6.80
2023-11-13T09:18:28.680Z,6.93
2023-11-13T09:20:59.517Z,6.10
2023-11-13T09:23:28.034Z,6.03
2023-11-13T09:25:55.045Z,5.90
2023-11-13T09:28:22.949Z,6.28
2023-11-13T09:30:51.047Z,6.75
2023-11-13T09:33:18.926Z,6.07
2023-11-13T09:35:47.405Z,6.10
2023-11-13T09:38:14.458Z,7.00
2023-11-13T09:40:41.832Z,5.70
2023-11-13T09:43:30.737Z,5.72
2023-11-13T09:45:58.008Z,6.05
2023-11-13T09:48:31.926Z,5.80
2023-11-13T09:50:59.560Z,6.10
2023-11-13T09:53:28.138Z,6.07
2023-11-13T09:55:55.493Z,6.32
2023-11-13T09:58:23.465Z,6.07
2023-11-13T10:00:51.925Z,6.22
2023-11-13T10:03:19.547Z,6.20
2023-11-13T10:05:47.010Z,6.10
2023-11-13T10:08:16.226Z,6.28
2023-11-13T10:10:45.357Z,5.80
2023-11-13T10:13:13.817Z,6.03
2023-11-13T10:15:46.050Z,5.88
2023-11-13T10:18:14.619Z,7.40
2023-11-13T10:20:44.242Z,8.10
2023-11-13T10:23:11.196Z,8.77
2023-11-13T10:25:52.143Z,7.55
2023-11-13T10:28:20.214Z,7.20
2023-11-13T10:30:53.762Z,6.88
2023-11-13T10:33:21.761Z,6.47
2023-11-13T10:35:52.716Z,6.28
2023-11-13T10:38:23.938Z,5.47
2023-11-13T10:40:56.600Z,6.32
2023-11-13T10:43:34.920Z,5.07
2023-11-13T10:46:02.437Z,5.30
2023-11-13T10:48:39.565Z,5.82
2023-11-13T10:51:07.715Z,4.90
2023-11-13T10:53:44.369Z,4.75
2023-11-13T10:56:11.999Z,4.63
2023-11-13T10:58:39.647Z,4.70
2023-11-13T11:01:11.839Z,4.25
2023-11-13T11:03:48.862Z,3.92
2023-11-13T11:06:23.187Z,5.10
2023-11-13T11:08:52.124Z,4.40
2023-11-13T11:11:23.284Z,4.10
2023-11-13T11:13:55.560Z,4.25
2023-11-13T11:16:34.258Z,4.00
2023-11-13T11:19:19.686Z,4.50
2023-11-13T11:22:08.468Z,3.97
2023-11-13T11:24:50.720Z,4.65
2023-11-13T11:27:42.554Z,4.00
2023-11-13T11:30:18.709Z,4.90
2023-11-13T11:33:03.740Z,4.68
2023-11-13T11:35:36.214Z,3.70
2023-11-13T11:38:28.959Z,4.60
2023-11-13T11:41:00.588Z,4.32
2023-11-13T11:43:37.607Z,4.43
2023-11-13T11:46:08.503Z,4.43
2023-11-13T11:48:39.176Z,4.40
2023-11-13T11:51:21.430Z,4.72
2023-11-13T11:54:00.144Z,4.28
2023-11-13T11:56:28.896Z,4.65
2023-11-13T11:58:57.282Z,4.60
2023-11-13T12:01:27.435Z,4.65
2023-11-13T12:03:54.654Z,4.85
2023-11-13T12:06:22.526Z,5.00
2023-11-13T12:08:50.738Z,4.35
2023-11-13T12:11:21.383Z,4.78
2023-11-13T12:13:48.435Z,4.93
2023-11-13T12:16:15.795Z,5.15
2023-11-13T12:18:43.495Z,4.75
2023-11-13T12:21:10.696Z,4.78
2023-11-13T12:23:37.713Z,5.85
2023-11-13T12:26:06.339Z,5.38
2023-11-13T12:28:34.209Z,5.07
2023-11-13T12:31:17.142Z,5.25
2023-11-13T12:33:45.631Z,5.60
2023-11-13T12:36:18.901Z,6.30
2023-11-13T12:38:49.412Z,5.95
2023-11-13T12:41:16.426Z,6.75
2023-11-13T12:43:46.382Z,7.85
2023-11-13T12:46:13.867Z,8.57
2023-11-13T12:48:43.075Z,8.73
2023-11-13T12:51:11.340Z,8.95
2023-11-13T12:53:40.052Z,9.55
2023-11-13T12:56:07.799Z,9.77
2023-11-13T12:58:36.814Z,11.20
2023-11-13T13:01:06.823Z,9.25
2023-11-13T13:03:34.141Z,9.43
2023-11-13T13:06:04.662Z,11.23
2023-11-13T13:08:33.038Z,9.63
2023-11-13T13:11:00.248Z,9.73
2023-11-13T13:13:27.365Z,10.82
2023-11-13T13:15:55.111Z,8.85
2023-11-13T13:18:24.170Z,9.85
2023-11-13T13:20:52.831Z,9.15
2023-11-13T13:23:19.654Z,9.93
2023-11-13T13:25:46.566Z,9.55
2023-11-13T13:28:14.426Z,8.45
2023-11-13T13:30:41.929Z,8.93
2023-11-13T13:33:12.793Z,8.70
2023-11-13T13:35:40.899Z,8.65
2023-11-13T13:38:08.171Z,9.32
2023-11-13T13:40:37.798Z,9.93
2023-11-13T13:43:04.821Z,12.05
2023-11-13T13:45:31.724Z,10.50
2023-11-13T13:47:58.799Z,9.88
2023-11-13T13:50:26.527Z,9.38
2023-11-13T13:52:57.918Z,9.55
2023-11-13T13:55:29.493Z,9.55
2023-11-13T13:58:02.470Z,10.52
2023-11-13T14:00:36.935Z,10.52
2023-11-13T14:03:13.190Z,10.93
2023-11-13T14:05:44.776Z,9.65
2023-11-13T14:08:17.299Z,9.77
2023-11-13T14:10:52.683Z,9.85
2023-11-13T14:13:23.915Z,10.68
2023-11-13T14:16:03.983Z,11.93
2023-11-13T14:18:37.190Z,9.80
2023-11-13T14:21:05.001Z,10.63
2023-11-13T14:23:33.018Z,11.15
2023-11-13T14:26:00.199Z,10.93
2023-11-13T14:28:27.481Z,11.10
2023-11-13T14:30:55.991Z,11.45
2023-11-13T14:33:23.907Z,11.55
2023-11-13T14:35:51.111Z,11.35
2023-11-13T14:38:18.024Z,10.00
2023-11-13T14:40:44.949Z,9.38
2023-11-13T14:43:11.932Z,8.05
2023-11-13T14:45:39.996Z,10.57
2023-11-13T14:48:07.336Z,9.88
2023-11-13T14:50:36.587Z,10.88
2023-11-13T14:53:03.825Z,10.15
2023-11-13T14:55:30.860Z,10.80
2023-11-13T14:57:58.116Z,12.02
2023-11-13T15:00:25.376Z,12.32
2023-11-13T15:02:54.290Z,12.15
2023-11-13T15:05:22.755Z,12.48
2023-11-13T15:07:50.498Z,17.30
2023-11-13T15:10:19.307Z,12.25
2023-11-13T15:12:47.554Z,12.82
2023-11-13T15:15:17.152Z,12.50
2023-11-13T15:17:46.259Z,11.88
2023-11-13T15:20:16.152Z,11.82
2023-11-13T15:23:04.418Z,11.13
2023-11-13T15:25:32.725Z,12.23
2023-11-13T15:27:59.796Z,13.68
2023-11-13T15:30:26.910Z,12.40
2023-11-13T15:32:54.843Z,13.02
2023-11-13T15:35:21.739Z,12.90
2023-11-13T15:37:48.680Z,12.18
2023-11-13T15:40:16.180Z,12.48
2023-11-13T15:42:43.467Z,11.50
2023-11-13T15:45:12.507Z,10.38
2023-11-13T15:47:40.286Z,8.68
2023-11-13T15:50:11.219Z,6.25
2023-11-13T15:52:39.113Z,5.90
2023-11-13T15:55:06.717Z,5.70
2023-11-13T15:57:33.723Z,6.90
2023-11-13T16:00:00.705Z,6.10
2023-11-13T16:02:27.610Z,6.10
2023-11-13T16:04:58.439Z,5.65
2023-11-13T16:07:25.787Z,5.00
2023-11-13T16:09:55.381Z,5.40
2023-11-13T16:12:22.601Z,5.70
2023-11-13T16:14:49.988Z,6.13
2023-11-13T16:17:17.191Z,5.68
2023-11-13T16:19:46.048Z,5.57
2023-11-13T16:22:13.585Z,5.50
2023-11-13T16:24:40.651Z,5.70
2023-11-13T16:27:08.067Z,5.40
2023-11-13T16:29:35.152Z,5.63
2023-11-13T16:32:05.079Z,5.30
2023-11-13T16:34:32.288Z,5.55
2023-11-13T16:36:59.384Z,5.45
2023-11-13T16:39:26.248Z,5.65
2023-11-13T16:41:53.151Z,5.20
2023-11-13T16:44:20.082Z,5.53
2023-11-13T16:46:46.961Z,6.05
2023-11-13T16:49:13.972Z,5.07
2023-11-13T16:51:40.900Z,4.50
2023-11-13T16:54:11.748Z,5.82
2023-11-13T16:56:44.696Z,4.82
2023-11-13T16:59:11.671Z,5.60
2023-11-13T17:01:38.713Z,4.78
2023-11-13T17:04:06.388Z,4.85
2023-11-13T17:06:33.945Z,4.70
2023-11-13T17:09:00.958Z,4.38
2023-11-13T17:11:30.123Z,5.63
2023-11-13T17:13:57.931Z,3.95
2023-11-13T17:16:25.427Z,4.90
2023-11-13T17:18:52.525Z,4.93
2023-11-13T17:21:19.699Z,4.32
2023-11-13T17:23:47.511Z,3.90
2023-11-13T17:26:14.620Z,4.35
2023-11-13T17:28:41.547Z,4.80
2023-11-13T17:31:08.802Z,4.55
2023-11-13T17:33:36.070Z,4.25
2023-11-13T17:36:04.493Z,4.15
2023-11-13T17:38:31.573Z,5.40
2023-11-13T17:41:01.710Z,5.05
2023-11-13T17:43:29.079Z,4.78
2023-11-13T17:45:58.297Z,5.50
2023-11-13T17:48:25.736Z,5.18
2023-11-13T17:50:53.411Z,4.10
2023-11-13T17:53:21.472Z,4.70
2023-11-13T17:55:48.563Z,5.35
2023-11-13T17:58:15.577Z,5.35
2023-11-13T18:00:43.771Z,4.97
2023-11-13T18:03:12.587Z,4.97
2023-11-13T18:05:40.025Z,4.88
2023-11-13T18:08:06.946Z,4.70
2023-11-13T18:10:33.890Z,4.90
2023-11-13T18:13:00.823Z,6.03
2023-11-13T18:15:28.038Z,5.15
2023-11-13T18:17:55.027Z,5.70
2023-11-13T18:20:21.914Z,5.32
2023-11-13T18:22:52.159Z,5.65
2023-11-13T18:25:19.527Z,5.03
2023-11-13T18:27:46.781Z,5.47
2023-11-13T18:30:14.673Z,4.78
2023-11-13T18:32:42.749Z,5.60
2023-11-13T18:35:10.231Z,6.30
2023-11-13T18:37:40.444Z,5.38
2023-11-13T18:40:09.771Z,4.10
2023-11-13T18:42:37.680Z,4.25
2023-11-13T18:45:06.430Z,4.45
2023-11-13T18:47:34.416Z,4.28
2023-11-13T18:50:01.533Z,5.00
2023-11-13T18:52:28.893Z,3.75
2023-11-13T18:54:56.605Z,5.13
2023-11-13T18:57:24.112Z,4.53
2023-11-13T18:59:51.114Z,4.40
2023-11-13T19:02:18.088Z,3.80
2023-11-13T19:04:45.496Z,4.30
2023-11-13T19:07:13.719Z,4.55
2023-11-13T19:09:41.343Z,4.32
2023-11-13T19:12:11.180Z,4.65
2023-11-13T19:14:38.446Z,4.97
2023-11-13T19:17:06.572Z,5.13
2023-11-13T19:19:34.315Z,5.95
2023-11-13T19:22:02.426Z,5.57
2023-11-13T19:24:31.005Z,5.20
2023-11-13T19:26:57.910Z,5.28
2023-11-13T19:29:25.063Z,4.30
2023-11-13T19:31:52.804Z,4.75
2023-11-13T19:34:20.069Z,4.25
2023-11-13T19:36:48.360Z,4.30
2023-11-13T19:39:15.837Z,5.38
2023-11-13T19:41:44.633Z,4.80
2023-11-13T19:44:12.576Z,5.07
2023-11-13T19:46:40.006Z,4.72
2023-11-13T19:49:08.936Z,4.22
2023-11-13T19:51:36.125Z,5.38
2023-11-13T19:54:04.769Z,5.07
2023-11-13T19:56:32.000Z,4.97
2023-11-13T19:58:59.335Z,4.07
2023-11-13T20:01:27.445Z,4.22
2023-11-13T20:03:54.745Z,4.38
2023-11-13T20:06:21.885Z,4.60
2023-11-13T20:08:51.504Z,4.50
2023-11-13T20:11:24.683Z,4.43
2023-11-13T20:13:52.646Z,3.60
2023-11-13T20:16:19.654Z,4.07
2023-11-13T20:18:48.280Z,3.80
2023-11-13T20:21:16.332Z,3.72
2023-11-13T20:23:43.277Z,3.67
2023-11-13T20:26:10.456Z,3.50
2023-11-13T20:28:37.536Z,3.58
2023-11-13T20:31:04.613Z,3.58
2023-11-13T20:33:32.527Z,3.63
2023-11-13T20:35:59.673Z,3.55
2023-11-13T20:38:27.704Z,3.45
2023-11-13T20:40:54.789Z,4.47
2023-11-13T20:43:21.856Z,5.03
2023-11-13T20:45:49.002Z,4.60
2023-11-13T20:48:16.199Z,4.00
2023-11-13T20:50:43.196Z,4.63
2023-11-13T20:53:10.624Z,4.28
2023-11-13T20:55:39.567Z,5.47
2023-11-13T20:58:08.819Z,4.93
2023-11-13T21:00:36.225Z,4.63
2023-11-13T21:03:03.541Z,4.97
2023-11-13T21:05:30.701Z,4.45
2023-11-13T21:07:57.694Z,3.97
2023-11-13T21:10:24.828Z,5.20
2023-11-13T21:12:51.884Z,4.90
2023-11-13T21:15:18.869Z,4.60
2023-11-13T21:17:45.943Z,4.20
2023-11-13T21:20:13.312Z,3.95
2023-11-13T21:22:45.367Z,3.60
2023-11-13T21:25:16.447Z,3.70
2023-11-13T21:27:46.614Z,3.88
2023-11-13T21:30:14.636Z,3.17
2023-11-13T21:32:41.982Z,4.05
2023-11-13T21:35:10.603Z,3.10
2023-11-13T21:37:38.385Z,3.30
2023-11-13T21:40:05.742Z,4.13
2023-11-13T21:42:34.793Z,3.47
2023-11-13T21:45:01.643Z,3.60
2023-11-13T21:47:28.570Z,3.13
2023-11-13T21:49:55.588Z,3.08
2023-11-13T21:52:24.405Z,3.75
2023-11-13T21:54:51.949Z,3.10
2023-11-13T21:57:18.835Z,3.03
2023-11-13T21:59:47.080Z,3.17
2023-11-13T22:02:19.057Z,3.83
2023-11-13T22:04:46.614Z,3.03
2023-11-13T22:07:13.512Z,3.47
2023-11-13T22:09:40.405Z,3.33
2023-11-13T22:12:08.246Z,3.20
2023-11-13T22:14:35.669Z,3.63
2023-11-13T22:17:05.193Z,4.10
2023-11-13T22:19:33.773Z,3.45
2023-11-13T22:22:00.655Z,3.50
2023-11-13T22:24:28.436Z,3.45
2023-11-13T22:26:55.415Z,3.83
2023-11-13T22:29:22.288Z,3.35
2023-11-13T22:31:49.261Z,4.03
2023-11-13T22:34:16.656Z,3.00
2023-11-13T22:36:44.252Z,3.20
2023-11-13T22:39:11.117Z,3.13
2023-11-13T22:41:38.145Z,3.03
2023-11-13T22:44:05.424Z,2.92
2023-11-13T22:46:32.615Z,3.03
2023-11-13T22:48:59.678Z,3.47
2023-11-13T22:51:26.604Z,3.47
2023-11-13T22:53:53.527Z,3.10
2023-11-13T22:56:20.474Z,3.03
2023-11-13T22:58:53.304Z,3.05
2023-11-13T23:01:21.346Z,2.63
2023-11-13T23:03:51.454Z,2.78
2023-11-13T23:06:18.801Z,3.38
2023-11-13T23:08:46.173Z,3.05
2023-11-13T23:11:13.235Z,2.60
2023-11-13T23:13:40.226Z,2.65
2023-11-13T23:16:08.246Z,2.70
2023-11-13T23:18:36.344Z,3.00
2023-11-13T23:21:06.433Z,3.30
2023-11-13T23:23:34.324Z,2.80
2023-11-13T23:26:01.378Z,2.53
2023-11-13T23:28:28.582Z,2.58
2023-11-13T23:30:56.550Z,2.95
2023-11-13T23:33:23.482Z,2.67
2023-11-13T23:35:50.326Z,2.78
2023-11-13T23:38:19.380Z,2.65
2023-11-13T23:40:49.691Z,2.70
2023-11-13T23:43:17.441Z,2.65
2023-11-13T23:45:45.243Z,2.58
2023-11-13T23:48:14.399Z,2.42
2023-11-13T23:50:41.985Z,2.38
2023-11-13T23:53:09.089Z,2.67
2023-11-13T23:55:36.850Z,2.63
2023-11-13T23:58:03.744Z,2.55
